createdAt,value
2023-05-05T00:00:58.916Z,0.2
2023-05-05T00:05:31.989Z,0.2
2023-05-05T00:10:31.826Z,0.2
2023-05-05T00:15:31.114Z,0.2
2023-05-05T00:20:32.867Z,0.1
2023-05-05T00:25:28.859Z,0.2
2023-05-05T00:30:28.775Z,0.2
2023-05-05T00:35:28.293Z,0.2
2023-05-05T00:40:28.517Z,0.2
2023-05-05T00:45:36.249Z,0.2
2023-05-05T00:50:35.508Z,0.2
2023-05-05T00:55:35.432Z,0.2
2023-05-05T00:59:56.139Z,0.2
2023-05-05T01:04:55.317Z,0.2
2023-05-05T01:10:04.429Z,0.2
2023-05-05T01:14:55.867Z,0.2
2023-05-05T01:19:52.998Z,0.2
2023-05-05T01:24:52.504Z,0.2
2023-05-05T01:29:52.858Z,0.1
2023-05-05T01:34:54.343Z,0.2
2023-05-05T01:39:50.249Z,0.2
2023-05-05T01:44:51.133Z,0.2
2023-05-05T01:49:50.403Z,0.2
2023-05-05T01:54:49.508Z,0.2
2023-05-05T01:59:32.518Z,0.2
2023-05-05T02:04:32.234Z,0.2
2023-05-05T02:09:31.992Z,0.2
2023-05-05T02:14:33.381Z,0.2
2023-05-05T02:19:29.823Z,0.2
2023-05-05T02:24:29.355Z,0.2
2023-05-05T02:29:29.000Z,0.1
2023-05-05T02:34:28.461Z,0.2
2023-05-05T02:39:36.494Z,0.2
2023-05-05T02:44:36.401Z,0.2
2023-05-05T02:49:37.792Z,0.2
2023-05-05T02:54:35.024Z,0.2
2023-05-05T02:59:37.166Z,0.2
2023-05-05T03:04:34.439Z,0.2
2023-05-05T03:09:32.426Z,0.2
2023-05-05T03:14:33.473Z,0.2
2023-05-05T03:19:33.013Z,0.2
2023-05-05T03:24:20.903Z,0.2
2023-05-05T03:29:20.827Z,0.2
2023-05-05T03:34:19.913Z,0.3
2023-05-05T03:39:20.267Z,0.4
2023-05-05T03:44:17.626Z,0.6
2023-05-05T03:49:17.385Z,0.9
2023-05-05T03:54:17.707Z,2.7
2023-05-05T03:59:17.087Z,3.6
2023-05-05T04:04:17.015Z,4.4
2023-05-05T04:09:15.981Z,6.2
2023-05-05T04:14:15.733Z,7.6
2023-05-05T04:19:16.277Z,10.1
2023-05-05T04:24:14.396Z,10.4
2023-05-05T04:29:14.697Z,14.2
2023-05-05T04:34:13.681Z,18.8
2023-05-05T04:39:13.275Z,22.3
2023-05-05T04:44:12.941Z,25.4
2023-05-05T04:49:12.759Z,25.7
2023-05-05T04:54:12.563Z,25.2
2023-05-05T04:59:12.324Z,26.4
2023-05-05T05:04:11.130Z,31
2023-05-05T05:09:10.895Z,42
2023-05-05T05:14:09.787Z,63.6
2023-05-05T05:19:12.324Z,69.2
2023-05-05T05:24:08.946Z,70.5
2023-05-05T05:29:08.398Z,71.3
2023-05-05T05:34:09.801Z,70.2
2023-05-05T05:39:08.523Z,71.8
2023-05-05T05:44:09.060Z,63.9
2023-05-05T05:49:05.743Z,57.1
2023-05-05T05:54:07.638Z,57
2023-05-05T05:59:04.897Z,74.5
2023-05-05T06:00:55.528Z,74.6
2023-05-05T06:05:37.335Z,79.4
2023-05-05T06:15:38.752Z,93
2023-05-05T06:20:35.862Z,118
2023-05-05T06:25:35.766Z,110.7
2023-05-05T06:30:37.850Z,120.6
2023-05-05T06:35:34.838Z,119.3
2023-05-05T06:40:34.730Z,128.6
2023-05-05T06:45:36.589Z,129.7
2023-05-05T06:50:33.132Z,151.7
2023-05-05T06:55:32.923Z,179.8
2023-05-05T06:59:28.011Z,201.8
2023-05-05T07:04:36.182Z,212.1
2023-05-05T07:09:38.673Z,216.9
2023-05-05T07:14:36.651Z,199.7
2023-05-05T07:19:35.655Z,170.4
2023-05-05T07:24:35.754Z,195.7
2023-05-05T07:29:36.129Z,172.1
2023-05-05T07:34:34.362Z,186.8
2023-05-05T07:39:33.726Z,172.8
2023-05-05T07:44:34.007Z,159.9
2023-05-05T07:49:33.072Z,273
2023-05-05T07:54:33.560Z,415.2
2023-05-05T07:59:33.207Z,435.7
2023-05-05T08:04:36.067Z,293
2023-05-05T08:09:32.214Z,505
2023-05-05T08:14:31.789Z,469.1
2023-05-05T08:19:46.830Z,248.4
2023-05-05T08:24:20.436Z,198.1
2023-05-05T08:29:20.573Z,172.9
2023-05-05T08:34:20.288Z,611.7
2023-05-05T08:39:19.611Z,192.8
2023-05-05T08:44:18.962Z,239
2023-05-05T08:49:19.083Z,285.5
2023-05-05T08:54:18.608Z,282.9
2023-05-05T08:59:16.725Z,274.3
2023-05-05T09:01:05.377Z,265.3
2023-05-05T09:05:37.727Z,183.1
2023-05-05T09:10:36.638Z,140.6
2023-05-05T09:20:35.258Z,165.1
2023-05-05T09:25:35.615Z,201.2
2023-05-05T09:30:35.026Z,264
2023-05-05T09:35:36.013Z,309.6
2023-05-05T09:40:33.041Z,261.7
2023-05-05T09:45:32.178Z,332
2023-05-05T09:50:31.849Z,471.7
2023-05-05T09:55:31.806Z,200.8
2023-05-05T09:59:52.224Z,194.2
2023-05-05T10:04:51.778Z,211.2
2023-05-05T10:09:52.014Z,241
2023-05-05T10:14:51.959Z,288.2
2023-05-05T10:19:51.112Z,324.3
2023-05-05T10:24:50.880Z,265.5
2023-05-05T10:29:51.212Z,247.4
2023-05-05T10:34:51.518Z,301.1
2023-05-05T10:39:49.203Z,385.7
2023-05-05T10:44:49.253Z,334.7
2023-05-05T10:49:48.258Z,352
2023-05-05T10:54:49.063Z,431.8
2023-05-05T10:59:41.011Z,257.7
2023-05-05T11:04:40.208Z,220.8
2023-05-05T11:09:40.073Z,241.1
2023-05-05T11:14:39.343Z,247
2023-05-05T11:19:40.399Z,448.7
2023-05-05T11:24:37.036Z,379.4
2023-05-05T11:29:37.545Z,411.4
2023-05-05T11:34:36.574Z,616.3
2023-05-05T11:39:36.771Z,829.3
2023-05-05T11:44:34.246Z,664.5
2023-05-05T11:49:33.835Z,576.5
2023-05-05T11:54:33.159Z,555.2
2023-05-05T11:59:20.991Z,410
2023-05-05T12:04:21.497Z,450.6
2023-05-05T12:09:19.932Z,394
2023-05-05T12:14:20.346Z,476.7
2023-05-05T12:19:20.360Z,1016.4
2023-05-05T12:24:17.571Z,924.8
2023-05-05T12:29:17.568Z,351.7
2023-05-05T12:34:18.508Z,392.3
2023-05-05T12:39:17.892Z,361.1
2023-05-05T12:44:17.585Z,814.9
2023-05-05T12:49:21.363Z,289.5
2023-05-05T12:54:16.552Z,577.4
2023-05-05T12:59:15.913Z,838.1
2023-05-05T13:04:17.196Z,707.6
2023-05-05T13:09:13.726Z,552.4
2023-05-05T13:14:13.665Z,290.9
2023-05-05T13:19:13.075Z,370.4
2023-05-05T13:24:42.720Z,279.5
2023-05-05T13:29:10.137Z,333.9
2023-05-05T13:34:09.499Z,252
2023-05-05T13:39:08.674Z,328
2023-05-05T13:44:08.049Z,201.8
2023-05-05T13:49:08.159Z,185.4
2023-05-05T13:54:08.367Z,262.9
2023-05-05T13:59:09.769Z,226.7
2023-05-05T14:01:12.819Z,230.6
2023-05-05T14:05:36.946Z,707.1
2023-05-05T14:10:37.795Z,663.9
2023-05-05T14:15:37.513Z,646.5
2023-05-05T14:20:36.842Z,278.3
2023-05-05T14:25:36.992Z,197.1
2023-05-05T14:30:36.644Z,167.2
2023-05-05T14:35:38.566Z,121.4
2023-05-05T14:40:37.961Z,118.5
2023-05-05T14:45:34.804Z,127.3
2023-05-05T14:50:36.075Z,107.3
2023-05-05T14:55:33.130Z,69.3
2023-05-05T14:59:35.555Z,54.9
2023-05-05T15:04:35.520Z,46.8
2023-05-05T15:09:33.452Z,38.9
2023-05-05T15:14:32.839Z,23.8
2023-05-05T15:19:32.685Z,14.1
2023-05-05T15:24:31.574Z,10.6
2023-05-05T15:29:22.733Z,9.2
2023-05-05T15:34:20.249Z,8.1
2023-05-05T15:39:21.186Z,7.2
2023-05-05T15:44:17.443Z,8.8
2023-05-05T15:49:16.906Z,10.1
2023-05-05T15:54:16.030Z,15.9
2023-05-05T16:00:07.814Z,32.9
2023-05-05T16:04:15.115Z,32.7
2023-05-05T16:09:14.962Z,42.8
2023-05-05T16:14:15.923Z,38.5
2023-05-05T16:19:13.496Z,36.3
2023-05-05T16:24:12.982Z,39.2
2023-05-05T16:29:12.498Z,38.2
2023-05-05T16:34:12.391Z,57.9
2023-05-05T16:39:09.888Z,55.7
2023-05-05T16:44:09.507Z,56.8
2023-05-05T16:49:09.657Z,76
2023-05-05T16:54:10.364Z,65.9
2023-05-05T16:59:08.405Z,45.8
2023-05-05T17:04:08.452Z,26.6
2023-05-05T17:09:07.936Z,27.4
2023-05-05T17:14:07.673Z,25.7
2023-05-05T17:19:05.100Z,27.5
2023-05-05T17:24:04.786Z,20.3
2023-05-05T17:29:05.250Z,24.7
2023-05-05T17:34:06.262Z,24.2
2023-05-05T17:39:02.718Z,22.4
2023-05-05T17:44:03.154Z,18.2
2023-05-05T17:49:02.022Z,9.9
2023-05-05T17:54:01.663Z,4.4
2023-05-05T17:58:59.296Z,3.9
2023-05-05T18:00:46.078Z,3.8
2023-05-05T18:05:21.036Z,3.3
2023-05-05T18:10:19.746Z,3.1
2023-05-05T18:15:19.585Z,3.6
2023-05-05T18:20:21.450Z,3.8
2023-05-05T18:25:19.129Z,3.9
2023-05-05T18:30:18.126Z,3.3
2023-05-05T18:35:19.534Z,3.2
2023-05-05T18:40:16.621Z,2.5
2023-05-05T18:45:15.657Z,2.2
2023-05-05T18:50:15.206Z,1.5
2023-05-05T18:55:14.724Z,0.7
2023-05-05T18:59:40.564Z,0.5
2023-05-05T19:04:54.893Z,0.4
2023-05-05T19:09:40.273Z,0.3
2023-05-05T19:14:40.890Z,0.3
2023-05-05T19:19:37.406Z,0.3
2023-05-05T19:24:37.379Z,0.3
2023-05-05T19:29:36.943Z,0.2
2023-05-05T19:34:36.314Z,0.2
2023-05-05T19:39:37.047Z,0.3
2023-05-05T19:44:33.510Z,0.2
2023-05-05T19:49:33.662Z,0.2
2023-05-05T19:54:32.988Z,0.2
2023-05-05T19:59:20.826Z,0.2
2023-05-05T20:04:19.273Z,0.3
2023-05-05T20:09:19.250Z,0.2
2023-05-05T20:14:18.450Z,0.3
2023-05-05T20:19:17.185Z,0.3
2023-05-05T20:24:16.354Z,0.3
2023-05-05T20:29:17.508Z,0.3
2023-05-05T20:34:15.101Z,0.3
2023-05-05T20:39:14.621Z,0.3
2023-05-05T20:44:14.625Z,0.3
2023-05-05T20:49:15.062Z,0.3
2023-05-05T20:54:13.697Z,0.3
2023-05-05T20:59:14.626Z,0.3
2023-05-05T21:04:10.794Z,0.2
2023-05-05T21:09:10.658Z,0.3
2023-05-05T21:14:09.924Z,0.2
2023-05-05T21:19:09.860Z,0.3
2023-05-05T21:24:08.123Z,0.3
2023-05-05T21:29:07.292Z,0.2
2023-05-05T21:34:07.186Z,0.3
2023-05-05T21:39:09.005Z,0.3
2023-05-05T21:44:06.216Z,0.3
2023-05-05T21:49:05.817Z,0.3
2023-05-05T21:54:05.959Z,0.2
2023-05-05T21:59:06.181Z,0.2
2023-05-05T22:00:53.726Z,0.2
2023-05-05T22:05:28.092Z,0.3
2023-05-05T22:10:37.592Z,0.3
2023-05-05T22:15:49.544Z,0.3
2023-05-05T22:20:36.351Z,0.2
2023-05-05T22:25:35.727Z,0.2
2023-05-05T22:30:35.948Z,0.3
2023-05-05T22:35:34.031Z,0.2
2023-05-05T22:40:34.907Z,0.3
2023-05-05T22:45:34.155Z,0.3
2023-05-05T22:50:33.358Z,0.2
2023-05-05T22:55:33.729Z,0.3
2023-05-05T22:59:28.472Z,0.2
2023-05-05T23:04:28.230Z,0.3
2023-05-05T23:09:35.647Z,0.3
2023-05-05T23:14:35.305Z,0.3
2023-05-05T23:19:35.253Z,0.2
2023-05-05T23:24:34.484Z,0.3
2023-05-05T23:29:34.534Z,0.2
2023-05-05T23:34:34.967Z,0.3
2023-05-05T23:39:33.127Z,0.2
2023-05-05T23:44:33.092Z,0.2
2023-05-05T23:49:33.085Z,0.3
2023-05-05T23:54:31.986Z,0.2
2023-05-05T23:59:31.849Z,0.2
